KBRG/BRG METAR and TAF weather

Enter ICAO airport designator
Station Type Date Time Source
KBRG METAR 2022/01/29 13:35 UTC NOAA

KBRG 291335Z AUTO 30007KT 10SM CLR M10/M14 A3041 RMK AO2 T11021137


Station Type Date Time Source
KBRG Decoded METAR 2022/01/29 13:35 UTC NOAA

Station name not available
Jan 29, 2022 - 08:35 AM EST / 2022.01.29 1335 UTC
Wind: from the WNW (300 degrees) at 8 MPH (7 KT):0
Visibility: 10 mile(s):0
Sky conditions: clear
Temperature: 13.6 F (-10.2 C)
Windchill: 3 F (-16 C):1
Dew Point: 7.3 F (-13.7 C)
Relative Humidity: 75%
Pressure (altimeter): 30.41 in. Hg (1029 hPa)
ob: KBRG 291335Z AUTO 30007KT 10SM CLR M10/M14 A3041 RMK AO2 T11021137
cycle: 13

Station Type Date Time Source
KBRG TAF 2012/07/03 12:12 UTC NOAA

TAF SKBRG 031000Z 031212 VRB02KT 9999 FEW017 SCT080
TEMPO 0312/0317 11005KT VCTS - DZRAFEW015CB BKN070
TEMPO 0318/0323 TSRA FEW017CB BKN070
TEMPO 0400/0402 VCTS FEW020CB
TEMPO 0402/0406 -DZ SCT015CB
TEMPO 0408/0412 00000KT 5000 BCFG FEW005 TX23/0319Z TN10/0411Z

Example: see airport list